createdAt,value
2023-01-29T00:00:13.933Z,-92.57546
2023-01-29T00:05:26.903Z,-91.47932
2023-01-29T00:10:28.683Z,-90.92865
2023-01-29T00:15:29.627Z,-90.20038
2023-01-29T00:20:30.530Z,-89.62879
2023-01-29T00:25:31.550Z,-90.19098
2023-01-29T00:30:32.478Z,-90.42339
2023-01-29T00:35:33.379Z,-89.29697
2023-01-29T00:40:34.302Z,-88.79387
2023-01-29T00:45:35.339Z,-87.44293
2023-01-29T00:50:36.272Z,-86.86388
2023-01-29T00:55:37.198Z,-86.54402
2023-01-29T01:00:38.178Z,-86.5477
2023-01-29T01:05:39.235Z,-86.49242
2023-01-29T01:10:40.918Z,-87.18712
2023-01-29T01:15:41.853Z,-86.70517
2023-01-29T01:20:42.778Z,-87.32073
2023-01-29T01:25:43.768Z,-87.45941
2023-01-29T01:30:44.744Z,-86.99517
2023-01-29T01:35:45.659Z,-87.2453
2023-01-29T01:40:46.600Z,-86.57409
2023-01-29T01:45:47.560Z,-87.00207
2023-01-29T01:50:48.464Z,-86.87431
2023-01-29T01:55:49.403Z,-87.20486
2023-01-29T02:00:50.432Z,-87.65477
2023-01-29T02:05:51.382Z,-86.65976
2023-01-29T02:10:52.270Z,-86.18891
2023-01-29T02:15:53.240Z,-85.76997
2023-01-29T02:20:54.172Z,-85.24672
2023-01-29T02:25:55.093Z,-85.26582
2023-01-29T02:30:56.038Z,-85.26567
2023-01-29T02:35:57.036Z,-84.87087
2023-01-29T02:40:57.984Z,-84.55177
2023-01-29T02:45:58.953Z,-85.04715
2023-01-29T02:50:59.956Z,-84.99712
2023-01-29T02:56:00.882Z,-83.7638
2023-01-29T03:01:01.916Z,-83.51171
2023-01-29T03:06:02.845Z,-82.09914
2023-01-29T03:11:03.783Z,-82.30415
2023-01-29T03:16:04.751Z,-82.62099
2023-01-29T03:21:05.720Z,-81.93991
2023-01-29T03:26:06.693Z,-81.30281
2023-01-29T03:31:07.733Z,-81.98672
2023-01-29T03:36:08.739Z,-82.12538
2023-01-29T03:41:09.949Z,-81.16661
2023-01-29T03:46:11.220Z,-80.57407
2023-01-29T03:51:12.386Z,-80.22066
2023-01-29T03:56:13.329Z,-79.80521
2023-01-29T04:01:14.278Z,-78.55339
2023-01-29T04:06:15.418Z,-77.17419
2023-01-29T04:11:16.357Z,-76.90543
2023-01-29T04:16:17.300Z,-76.63317
2023-01-29T04:21:18.243Z,-75.77722
2023-01-29T04:26:19.195Z,-74.4211
2023-01-29T04:31:20.291Z,-73.83838
2023-01-29T04:36:21.283Z,-73.59458
2023-01-29T04:41:22.193Z,-73.02427
2023-01-29T04:46:23.291Z,-72.39756
2023-01-29T04:51:24.209Z,-72.60395
2023-01-29T04:56:25.148Z,-72.98168
2023-01-29T05:01:26.124Z,-73.4097
2023-01-29T05:06:27.077Z,-73.68787
2023-01-29T05:11:27.983Z,-72.85957
2023-01-29T05:16:28.933Z,-73.50537
2023-01-29T05:21:29.840Z,-73.61571
2023-01-29T05:26:30.822Z,-73.72562
2023-01-29T05:31:31.777Z,-73.80202
2023-01-29T05:36:32.718Z,-74.20735
2023-01-29T05:41:33.646Z,-74.7132
2023-01-29T05:46:34.632Z,-75.0129
2023-01-29T05:51:35.578Z,-74.55908
2023-01-29T05:56:36.472Z,-74.87851
2023-01-29T06:01:37.447Z,-75.52483
2023-01-29T06:06:38.574Z,-76.16696
2023-01-29T06:11:39.501Z,-76.51311
2023-01-29T06:16:40.416Z,-77.19371
2023-01-29T06:21:41.305Z,-76.92208
2023-01-29T06:26:42.228Z,-76.50758
2023-01-29T06:31:43.302Z,-76.19936
2023-01-29T06:36:44.319Z,-75.48786
2023-01-29T06:41:45.238Z,-76.01246
2023-01-29T06:46:46.167Z,-75.81734
2023-01-29T06:51:47.082Z,-76.97149
2023-01-29T06:56:48.161Z,-76.94763
2023-01-29T07:01:49.222Z,-76.61459
2023-01-29T07:06:50.207Z,-76.75956
2023-01-29T07:11:51.100Z,-76.44933
2023-01-29T07:16:52.008Z,-76.16982
2023-01-29T07:21:52.928Z,-75.45303
2023-01-29T07:26:53.845Z,-75.16875
2023-01-29T07:31:54.914Z,-74.97311
2023-01-29T07:36:55.878Z,-76.0998
2023-01-29T07:41:56.789Z,-75.86133
2023-01-29T07:46:57.703Z,-75.09479
2023-01-29T07:51:58.609Z,-74.18745
2023-01-29T07:56:59.533Z,-73.67251
2023-01-29T08:02:00.540Z,-72.06077
2023-01-29T08:07:01.672Z,-72.80684
2023-01-29T08:12:02.611Z,-73.14626
2023-01-29T08:17:03.572Z,-72.3512
2023-01-29T08:22:04.491Z,-72.40676
2023-01-29T08:27:05.451Z,-72.98462
2023-01-29T08:32:06.398Z,-71.98594
2023-01-29T08:37:07.334Z,-72.2912
2023-01-29T08:42:08.253Z,-70.9716
2023-01-29T08:47:09.151Z,-71.46903
2023-01-29T08:52:10.238Z,-71.61164
2023-01-29T08:57:11.471Z,-72.4609
2023-01-29T09:02:12.441Z,-72.25395
2023-01-29T09:07:13.398Z,-71.56043
2023-01-29T09:12:14.325Z,-71.60756
2023-01-29T09:17:15.273Z,-70.42819
2023-01-29T09:22:16.207Z,-71.2359
2023-01-29T09:27:17.135Z,-70.6709
2023-01-29T09:32:37.645Z,-71.21384
2023-01-29T09:37:51.036Z,-71.36433
2023-01-29T09:42:51.987Z,-71.08633
2023-01-29T09:47:52.932Z,-69.72296
2023-01-29T09:52:53.936Z,-68.37197
2023-01-29T09:57:54.879Z,-67.23993
2023-01-29T10:02:55.805Z,-66.70043
2023-01-29T10:07:56.699Z,-66.28361
2023-01-29T10:12:57.578Z,-66.64509
2023-01-29T10:17:58.501Z,-65.8365
2023-01-29T10:22:59.416Z,-64.33522
2023-01-29T10:28:00.372Z,-63.82744
2023-01-29T10:33:01.426Z,-64.13813
2023-01-29T10:38:02.389Z,-65.46853
2023-01-29T10:43:03.333Z,-64.88729
2023-01-29T10:48:04.311Z,-63.90032
2023-01-29T10:53:05.367Z,-63.33173
2023-01-29T10:58:06.301Z,-62.56636
2023-01-29T11:03:12.483Z,-61.69525
2023-01-29T11:08:19.079Z,-60.50663
2023-01-29T11:13:19.995Z,-60.70664
2023-01-29T11:18:20.944Z,-59.73444
2023-01-29T11:23:21.961Z,-59.41891
2023-01-29T11:28:22.936Z,-59.52017
2023-01-29T11:33:23.941Z,-57.98025
2023-01-29T11:38:24.889Z,-57.87442
2023-01-29T11:43:25.921Z,-57.51613
2023-01-29T11:48:26.885Z,-56.29607
2023-01-29T11:53:27.845Z,-56.20193
2023-01-29T11:58:28.838Z,-55.85529
2023-01-29T12:03:29.816Z,-55.24378
2023-01-29T12:08:30.839Z,-55.07054
2023-01-29T12:13:31.735Z,-54.3472
2023-01-29T12:18:32.673Z,-53.14952
2023-01-29T12:23:33.704Z,-52.12935
2023-01-29T12:28:34.635Z,-51.6393
2023-01-29T12:33:35.794Z,-51.74411
2023-01-29T12:38:36.990Z,-50.99443
2023-01-29T12:43:37.910Z,-50.17256
2023-01-29T12:48:38.825Z,-47.6069
2023-01-29T12:53:39.756Z,-48.34746
2023-01-29T12:58:40.751Z,-48.02462
2023-01-29T13:03:41.686Z,-49.1596
2023-01-29T13:08:42.602Z,-49.81535
2023-01-29T13:13:43.591Z,-49.45501
2023-01-29T13:18:44.599Z,-48.94087
2023-01-29T13:23:45.523Z,-47.92573
2023-01-29T13:28:46.515Z,-47.10942
2023-01-29T13:33:47.574Z,-46.78781
2023-01-29T13:38:48.504Z,-47.05394
2023-01-29T13:43:49.459Z,-46.94381
2023-01-29T13:48:50.413Z,-47.04842
2023-01-29T13:53:51.325Z,-46.76543
2023-01-29T13:58:52.284Z,-47.04547
2023-01-29T14:04:04.317Z,-46.40119
2023-01-29T14:09:06.096Z,-45.44256
2023-01-29T14:14:07.020Z,-44.8654
2023-01-29T14:19:07.967Z,-44.61245
2023-01-29T14:24:08.900Z,-44.84721
2023-01-29T14:29:10.083Z,-44.42789
2023-01-29T14:34:11.687Z,-44.51985
2023-01-29T14:39:12.950Z,-44.62386
2023-01-29T14:44:13.926Z,-44.42143
2023-01-29T14:49:14.862Z,-43.95019
2023-01-29T14:54:15.859Z,-43.38714
2023-01-29T14:59:16.792Z,-42.62592
2023-01-29T15:04:17.798Z,-42.1275
2023-01-29T15:09:18.764Z,-42.29516
2023-01-29T15:14:19.775Z,-41.4703
2023-01-29T15:19:20.728Z,-41.14977
2023-01-29T15:24:21.644Z,-40.4913
2023-01-29T15:29:22.693Z,-40.35745
2023-01-29T15:34:23.658Z,-39.33103
2023-01-29T15:39:24.647Z,-38.14534
2023-01-29T15:44:25.597Z,-38.88539
2023-01-29T15:49:26.628Z,-38.60849
2023-01-29T15:54:27.548Z,-38.99019
2023-01-29T15:59:28.486Z,-38.21744
2023-01-29T16:04:29.400Z,-37.97442
2023-01-29T16:09:30.376Z,-37.40444
2023-01-29T16:14:31.330Z,-36.88694
2023-01-29T16:19:32.269Z,-37.95283
2023-01-29T16:24:33.176Z,-37.43914
2023-01-29T16:29:34.082Z,-37.38999
2023-01-29T16:34:35.075Z,-36.58303
2023-01-29T16:39:35.992Z,-35.64921
2023-01-29T16:44:36.914Z,-36.12666
2023-01-29T16:49:37.944Z,-36.63759
2023-01-29T16:54:38.861Z,-35.81512
2023-01-29T16:59:39.811Z,-35.37021
2023-01-29T17:04:41.784Z,-35.75833
2023-01-29T17:09:42.827Z,-35.73462
2023-01-29T17:14:43.788Z,-35.28521
2023-01-29T17:19:44.740Z,-34.26441
2023-01-29T17:24:50.755Z,-33.72248
2023-01-29T17:29:52.702Z,-32.88356
2023-01-29T17:34:54.418Z,-32.33047
2023-01-29T17:39:56.044Z,-32.01636
2023-01-29T17:44:57.427Z,-31.16717
2023-01-29T17:49:58.410Z,-30.62091
2023-01-29T17:54:59.509Z,-29.56014
2023-01-29T18:00:00.733Z,-28.33852
2023-01-29T18:05:01.805Z,-27.98693
2023-01-29T18:10:02.727Z,-27.55334
2023-01-29T18:15:03.910Z,-26.91092
2023-01-29T18:20:04.993Z,-25.71736
2023-01-29T18:25:05.915Z,-24.9603
2023-01-29T18:30:06.855Z,-25.173
2023-01-29T18:35:07.809Z,-25.52458
2023-01-29T18:40:08.936Z,-25.13508
2023-01-29T18:45:09.973Z,-24.29833
2023-01-29T18:50:11.498Z,-23.69103
2023-01-29T18:55:13.428Z,-23.38179
2023-01-29T19:00:14.361Z,-24.00397
2023-01-29T19:05:15.716Z,-23.27872
2023-01-29T19:10:16.817Z,-22.76947
2023-01-29T19:15:18.097Z,-21.94614
2023-01-29T19:20:19.288Z,-21.81938
2023-01-29T19:25:20.645Z,-21.20043
2023-01-29T19:30:21.803Z,-19.54648
2023-01-29T19:35:22.810Z,-19.08593
2023-01-29T19:40:23.789Z,-17.97771
2023-01-29T19:45:42.947Z,-18.12652
2023-01-29T19:50:51.025Z,-16.71147
2023-01-29T19:55:52.036Z,-15.86823
2023-01-29T20:00:53.164Z,-15.38358
2023-01-29T20:05:59.233Z,-15.04557
2023-01-29T20:11:00.288Z,-14.46747
2023-01-29T20:16:01.272Z,-14.24715
2023-01-29T20:21:02.361Z,-12.81113
2023-01-29T20:26:03.541Z,-11.98626
2023-01-29T20:31:04.639Z,-11.69637
2023-01-29T20:36:05.671Z,-9.95986
2023-01-29T20:41:06.654Z,-9.79015
2023-01-29T20:46:07.614Z,-9.40869
2023-01-29T20:51:08.711Z,-8.27339
2023-01-29T20:56:09.660Z,-8.43793
2023-01-29T21:01:12.545Z,-6.32506
2023-01-29T21:06:13.563Z,-6.44157
2023-01-29T21:11:14.614Z,-5.80958
2023-01-29T21:16:15.585Z,-4.19579
2023-01-29T21:21:16.630Z,-3.22751
2023-01-29T21:26:17.591Z,-2.70101
2023-01-29T21:31:18.624Z,-1.82152
2023-01-29T21:36:19.588Z,-1.35711
2023-01-29T21:41:20.506Z,-0.76474
2023-01-29T21:46:21.476Z,-0.16967
2023-01-29T21:51:22.701Z,0.87592
2023-01-29T21:56:23.716Z,2.31152
2023-01-29T22:01:37.746Z,3.18602
2023-01-29T22:06:39.595Z,3.44406
2023-01-29T22:11:40.534Z,3.28208
2023-01-29T22:16:41.487Z,5.27167
2023-01-29T22:21:42.405Z,4.48343
2023-01-29T22:26:43.337Z,5.31832
2023-01-29T22:31:44.280Z,6.64132
2023-01-29T22:36:45.188Z,6.80145
2023-01-29T22:41:46.087Z,8.18487
2023-01-29T22:46:47.080Z,10.18877
2023-01-29T22:51:48.117Z,10.36872
2023-01-29T22:56:49.039Z,10.88406
2023-01-29T23:01:49.997Z,11.88667
2023-01-29T23:06:50.937Z,13.07243
2023-01-29T23:11:51.874Z,14.38984
2023-01-29T23:16:52.823Z,15.40859
2023-01-29T23:21:53.757Z,16.07372
2023-01-29T23:26:54.719Z,17.12035
2023-01-29T23:31:55.673Z,17.99228
2023-01-29T23:36:56.645Z,18.54688
2023-01-29T23:41:57.584Z,18.31691
2023-01-29T23:46:58.538Z,19.68515
2023-01-29T23:51:59.493Z,20.98029
2023-01-29T23:57:00.434Z,22.01208
